Nearby METAR Reports

 

KFRG - , , USA
Distance from station: SSW 12mi, 20km
Updated: 06/19/2018 5:53am
Clear
Clear
 Wind from WNW
Wind: WNW 7 mph , 11 km/h
Temperature: 77°F , 25°C
Dew Point: 72°F , 22°C
Humidity: 83%
Barometer: 29.71 inHg , 1006.1 hPa
Clouds: Clear
Visibility: 10 miles , 16 km
2018/06/19 09:53 KFRG 190953Z AUTO 30006KT 10SM CLR 25/22 A2971 RMK AO2 SLP061 T02500222
KISP - , , USA
Distance from station: ESE 14mi, 23km
Updated: 06/19/2018 5:56am
Overcast
Overcast
 Wind from W
Wind: W 9 mph , 15 km/h
Temperature: 75°F , 24°C
Dew Point: 73°F , 23°C
Humidity: 94%
Barometer: 29.71 inHg , 1006.1 hPa
Clouds: Overcast
Visibility: 10 miles , 16 km
Cloud details: Mostly cloudy 15000 ft
Overcast 22000 ft
2018/06/19 09:56 KISP 190956Z 28008KT 10SM BKN150 OVC220 24/23 A2971 RMK AO2 SLP059 T02440228
 
KBDR - , , USA
Distance from station: NNE 21mi, 34km
Updated: 06/19/2018 5:52am
Clear
Clear
 Wind from N
Wind: N 6 mph , 9 km/h
Temperature: 75°F , 24°C
Dew Point: 72°F , 22°C
Humidity: 89%
Barometer: 29.70 inHg , 1005.8 hPa
Clouds: Clear
Visibility: 10 miles , 16 km
2018/06/19 09:52 KBDR 190952Z AUTO 36005KT 10SM CLR 24/22 A2970 RMK AO2 SLP058 T02440222
KHPN - , , USA
Distance from station: WNW 22mi, 35km
Updated: 06/19/2018 5:56am
Partly cloudy
Partly cloudy
 Wind from WNW
Wind: WNW 9 mph , 15 km/h
Temperature: 75°F , 24°C
Dew Point: 72°F , 22°C
Humidity: 89%
Barometer: 29.73 inHg , 1006.8 hPa
Clouds: Partly cloudy
Visibility: 10 miles , 16 km
Cloud details: Partly cloudy 10000 ft
2018/06/19 09:56 KHPN 190956Z 29008KT 10SM SCT100 24/22 A2973 RMK AO2 SLP059 T02390217
 
KHWV - , , USA
Distance from station: ESE 26mi, 41km
Updated: 06/19/2018 5:56am
Clear
Clear
 Wind from WNW
Wind: WNW 8 mph , 13 km/h
Temperature: 75°F , 24°C
Dew Point: 73°F , 23°C
Humidity: 94%
Barometer: 29.71 inHg , 1006.1 hPa
Clouds: Clear
Visibility: 10 miles , 16 km
2018/06/19 09:56 KHWV 190956Z AUTO 30007KT 10SM CLR 24/23 A2971 RMK AO2 SLP060 T02440233 TSNO
KJFK - , , USA
Distance from station: SW 29mi, 46km
Updated: 06/19/2018 6:51am
Mostly cloudy
Mostly cloudy
 Wind from W
Wind: W 9 mph , 15 km/h
Temperature: 79°F , 26°C
Dew Point: 73°F , 23°C
Humidity: 84%
Barometer: 29.76 inHg , 1007.8 hPa
Clouds: Mostly cloudy
Visibility: 10 miles , 16 km
Cloud details: Few Clouds 3900 ft
Mostly cloudy 17000 ft
Mostly cloudy 28000 ft
2018/06/19 10:51 KJFK 191051Z 27008KT 10SM FEW039 BKN170 BKN280 26/23 A2976 RMK AO2 SLP078 T02
 
KLGA - , , USA
Distance from station: WSW 29mi, 47km
Updated: 06/19/2018 6:51am
Mostly cloudy
Mostly cloudy
 Wind from WNW
Wind: WNW 14 mph , 22 km/h
Temperature: 81°F , 27°C
Heat Index: 85°F , 29°C
Dew Point: 70°F , 21°C
Humidity: 70%
Barometer: 29.75 inHg , 1007.5 hPa
Clouds: Mostly cloudy
Visibility: 10 miles , 16 km
Cloud details: Few Clouds 5500 ft
Few Clouds 11000 ft
Mostly cloudy 16000 ft
Mostly cloudy 25000 ft
2018/06/19 10:51 KLGA 191051Z 30012KT 10SM FEW055 FEW110 BKN160 BKN250 27/21 A2975 RMK AO2 SLP074